Time;durP1;ratioP1;P1;durP2;ratioP2;P2;SDS_P1;SDS_P2;PMS_P1;PMS_P2;Temp;Humidity;BMP_temperature;BMP_pressure;BME280_temperature;BME280_humidity;BME280_pressure;Samples;Min_cycle;Max_cycle;Signal;HPM_P1;HPM_P2
2022/11/12 00:02:22;;;;;;;1.03;1.03;;;7.60;99.90;;;;;;5069541;28;20052;-73
2022/11/12 00:04:47;;;;;;;0.60;0.60;;;7.50;99.90;;;;;;5069908;28;20033;-72
2022/11/12 00:07:13;;;;;;;0.87;0.87;;;7.20;99.90;;;;;;5071605;28;20033;-74
2022/11/12 00:09:39;;;;;;;0.50;0.50;;;7.50;99.90;;;;;;5071406;28;20031;-76
2022/11/12 00:12:04;;;;;;;1.70;1.60;;;7.00;99.90;;;;;;5052886;28;20083;-72
2022/11/12 00:14:30;;;;;;;1.60;1.50;;;;;;;;;;5050034;28;20029;-73
2022/11/12 00:16:56;;;;;;;3.77;3.20;;;7.00;99.90;;;;;;5054881;28;20570;-73
2022/11/12 00:19:22;;;;;;;2.53;1.83;;;;;;;;;;5070112;28;20036;-73
2022/11/12 00:21:47;;;;;;;2.23;2.00;;;7.20;99.90;;;;;;5071148;28;20377;-72
2022/11/12 00:24:13;;;;;;;3.10;2.10;;;7.20;99.90;;;;;;5071305;28;20029;-76
2022/11/12 00:26:39;;;;;;;0.80;0.80;;;;;;;;;;5060167;28;20160;-74
2022/11/12 00:29:05;;;;;;;2.33;1.60;;;;;;;;;;5050120;28;20128;-73
2022/11/12 00:31:30;;;;;;;1.90;1.80;;;7.60;99.90;;;;;;5051798;28;20041;-73
2022/11/12 00:33:56;;;;;;;1.13;0.67;;;7.10;99.90;;;;;;5068928;28;20364;-72
2022/11/12 00:36:22;;;;;;;1.73;1.63;;;;;;;;;;5071611;28;20484;-72
2022/11/12 00:38:48;;;;;;;2.30;2.13;;;;;;;;;;5071155;28;20431;-75
2022/11/12 00:41:13;;;;;;;1.67;1.57;;;7.40;99.90;;;;;;5065040;28;20312;-72
2022/11/12 00:43:42;;;;;;;2.27;1.80;;;7.50;99.90;;;;;;5050794;28;20040;-73
2022/11/12 00:46:08;;;;;;;0.95;0.82;;;;;;;;;;5051157;28;20040;-72
2022/11/12 00:48:34;;;;;;;0.60;0.60;;;;;;;;;;5063807;28;20020;-72
2022/11/12 00:51:05;;;;;;;0.70;0.70;;;7.50;99.90;;;;;;5071162;28;20360;-73
2022/11/12 00:53:31;;;;;;;2.28;2.13;;;7.40;99.90;;;;;;5071255;28;20337;-74
2022/11/12 00:56:06;;;;;;;1.88;1.75;;;7.10;99.90;;;;;;5069580;28;20087;-73
2022/11/12 00:58:34;;;;;;;0.65;0.65;;;7.60;99.90;;;;;;5070959;28;20327;-74
2022/11/12 01:01:08;;;;;;;0.70;0.70;;;7.60;99.90;;;;;;5069159;28;20098;-72
2022/11/12 01:03:34;;;;;;;0.40;0.40;;;7.10;99.90;;;;;;5059579;28;20561;-76
2022/11/12 01:06:13;;;;;;;1.25;1.10;;;8.20;99.90;;;;;;5049516;28;20427;-73
2022/11/12 01:08:39;;;;;;;1.45;1.42;;;7.80;99.90;;;;;;5048929;28;20486;-74
2022/11/12 01:11:08;;;;;;;0.70;0.70;;;7.60;99.90;;;;;;5051410;28;20046;-75
2022/11/12 01:13:33;;;;;;;0.98;0.98;;;7.70;99.90;;;;;;5069726;28;20043;-74
2022/11/12 01:16:14;;;;;;;0.97;0.97;;;7.00;99.90;;;;;;5071009;28;20032;-73
2022/11/12 01:18:40;;;;;;;1.33;1.23;;;7.30;99.90;;;;;;5063123;28;20028;-73
2022/11/12 01:21:06;;;;;;;0.60;0.60;;;7.70;99.90;;;;;;5070435;28;20059;-73
2022/11/12 01:23:34;;;;;;;0.95;0.95;;;7.60;99.90;;;;;;5070429;28;20328;-74
2022/11/12 01:26:08;;;;;;;0.80;0.80;;;7.60;99.90;;;;;;5069186;28;20440;-74
2022/11/12 01:28:34;;;;;;;1.58;1.48;;;8.00;99.90;;;;;;5052980;28;20113;-74
2022/11/12 01:31:20;;;;;;;0.57;0.57;;;7.70;99.90;;;;;;5061662;28;20533;-73
2022/11/12 01:33:48;;;;;;;2.33;2.13;;;7.40;99.90;;;;;;5061213;28;20111;-74
2022/11/12 01:36:16;;;;;;;1.38;1.30;;;7.20;99.90;;;;;;5050834;28;20082;-73
2022/11/12 01:38:43;;;;;;;0.50;0.50;;;7.70;99.90;;;;;;5050543;28;20050;-73
2022/11/12 01:41:15;;;;;;;1.80;0.93;;;7.80;99.90;;;;;;5051381;28;20040;-73
2022/11/12 01:43:41;;;;;;;0.52;0.52;;;;;;;;;;5049177;28;20392;-74
2022/11/12 01:46:20;;;;;;;0.70;0.70;;;7.90;99.90;;;;;;5049106;28;20111;-73
2022/11/12 01:48:51;;;;;;;1.17;1.17;;;7.60;99.90;;;;;;5055636;28;20318;-75
2022/11/12 01:51:20;;;;;;;0.90;0.90;;;7.60;99.90;;;;;;5070496;28;20059;-72
2022/11/12 01:53:48;;;;;;;1.63;1.52;;;7.40;99.90;;;;;;5069221;28;20361;-74
2022/11/12 01:56:16;;;;;;;0.65;0.65;;;7.70;99.90;;;;;;5068884;28;20037;-74
2022/11/12 01:58:44;;;;;;;1.45;1.20;;;7.60;99.90;;;;;;5051940;28;20029;-74
2022/11/12 02:01:10;;;;;;;2.28;2.08;;;;;;;;;;5050283;28;20044;-74
2022/11/12 02:03:35;;;;;;;0.85;0.85;;;7.60;99.90;;;;;;5053351;28;20058;-73
2022/11/12 02:06:09;;;;;;;0.93;0.93;;;7.60;99.90;;;;;;5065407;28;20115;-72
2022/11/12 02:08:36;;;;;;;1.70;1.60;;;7.40;99.90;;;;;;5069974;28;20025;-74
2022/11/12 02:11:19;;;;;;;2.75;1.70;;;7.50;99.90;;;;;;5070285;28;20033;-74
2022/11/12 02:14:02;;;;;;;1.27;1.27;;;7.40;99.90;;;;;;5055084;28;20033;-74
2022/11/12 02:16:28;;;;;;;2.13;1.98;;;;;;;;;;5048747;28;20073;-73
2022/11/12 02:18:54;;;;;;;0.57;0.57;;;8.20;99.90;;;;;;5053100;28;20070;-74
2022/11/12 02:21:21;;;;;;;0.50;0.50;;;7.60;99.90;;;;;;5073423;28;20549;-74
2022/11/12 02:23:46;;;;;;;;;;;7.50;99.90;;;;;;5072479;28;20119;-73
2022/11/12 02:26:12;;;;;;;1.50;1.40;;;;;;;;;;5073723;28;20023;-75
2022/11/12 02:28:38;;;;;;;1.20;1.10;;;7.00;99.90;;;;;;5071722;28;20377;-73
2022/11/12 02:31:03;;;;;;;0.70;0.70;;;7.50;99.90;;;;;;5071959;28;20292;-74
2022/11/12 02:33:29;;;;;;;0.80;0.80;;;;;;;;;;5073476;28;20025;-74
2022/11/12 02:35:55;;;;;;;4.53;3.20;;;;;;;;;;5069640;28;20040;-74
2022/11/12 02:38:21;;;;;;;0.70;0.70;;;7.80;99.90;;;;;;5073622;28;20033;-74
2022/11/12 02:40:46;;;;;;;1.63;1.53;;;7.70;99.90;;;;;;5073850;28;20487;-73
2022/11/12 02:43:12;;;;;;;1.40;1.30;;;;;;;;;;5065245;28;20033;-74
2022/11/12 02:45:38;;;;;;;1.43;1.33;;;7.80;99.90;;;;;;5053408;28;20036;-72
2022/11/12 02:48:03;;;;;;;1.17;1.17;;;8.00;99.90;;;;;;5053309;28;20029;-74
2022/11/12 02:50:29;;;;;;;1.00;1.00;;;7.60;99.90;;;;;;5064659;28;20186;-74
2022/11/12 02:52:55;;;;;;;0.60;0.60;;;7.90;99.90;;;;;;5071575;28;20029;-73
2022/11/12 02:55:21;;;;;;;0.97;0.97;;;;;;;;;;5071657;28;20476;-72
2022/11/12 02:57:46;;;;;;;0.60;0.60;;;7.80;99.90;;;;;;5072392;28;20047;-74
2022/11/12 03:00:12;;;;;;;1.07;1.03;;;7.50;99.90;;;;;;5071928;28;20033;-75
2022/11/12 03:02:57;;;;;;;0.40;0.40;;;7.60;99.90;;;;;;5071772;28;20060;-74
2022/11/12 03:05:24;;;;;;;0.57;0.57;;;7.70;99.90;;;;;;5070976;28;20473;-75
2022/11/12 03:07:50;;;;;;;0.40;0.40;;;;;;;;;;5071494;28;20035;-74
2022/11/12 03:10:16;;;;;;;1.33;1.27;;;;;;;;;;5073131;28;20044;-75
2022/11/12 03:12:42;;;;;;;0.60;0.60;;;;;;;;;;5073164;28;20245;-76
2022/11/12 03:15:08;;;;;;;0.40;0.40;;;7.70;99.90;;;;;;5072416;28;20308;-77
2022/11/12 03:17:35;;;;;;;0.50;0.50;;;;;;;;;;5072890;28;20093;-74
2022/11/12 03:20:01;;;;;;;1.95;1.83;;;;;;;;;;5067796;28;20066;-74
2022/11/12 03:22:27;;;;;;;1.07;1.07;;;;;;;;;;5051461;28;20033;-75
2022/11/12 03:24:53;;;;;;;2.87;2.67;;;;;;;;;;5052514;28;20750;-73
2022/11/12 03:27:18;;;;;;;0.95;0.95;;;7.60;99.90;;;;;;5051234;28;20025;-73
2022/11/12 03:29:44;;;;;;;0.63;0.63;;;;;;;;;;5063836;28;20047;-72
2022/11/12 03:32:10;;;;;;;0.67;0.67;;;;;;;;;;5071547;28;20476;-74
2022/11/12 03:34:36;;;;;;;0.40;0.40;;;;;;;;;;5072285;28;20028;-73
2022/11/12 03:37:02;;;;;;;0.77;0.77;;;8.10;99.90;;;;;;5051046;28;20274;-72
2022/11/12 03:39:28;;;;;;;0.45;0.45;;;;;;;;;;5050806;28;20102;-73
2022/11/12 03:41:54;;;;;;;0.60;0.60;;;;;;;;;;5052928;28;20067;-73
2022/11/12 03:44:20;;;;;;;0.87;0.83;;;7.90;99.90;;;;;;5057997;28;20681;-73
2022/11/12 03:46:45;;;;;;;0.87;0.87;;;7.80;99.90;;;;;;5072685;28;20111;-73
2022/11/12 03:49:11;;;;;;;1.40;1.23;;;7.60;99.90;;;;;;5072023;28;20055;-73
2022/11/12 03:51:37;;;;;;;0.50;0.50;;;;;;;;;;5056308;28;20029;-72
2022/11/12 03:54:03;;;;;;;1.57;1.47;;;;;;;;;;5052177;28;20025;-74
2022/11/12 03:56:28;;;;;;;0.93;0.93;;;8.60;99.90;;;;;;5052224;28;20282;-74
2022/11/12 03:58:54;;;;;;;0.63;0.63;;;;;;;;;;5053845;28;20664;-76
2022/11/12 04:01:20;;;;;;;0.93;0.93;;;7.60;99.90;;;;;;5072101;28;20068;-75
2022/11/12 04:03:46;;;;;;;0.63;0.63;;;;;;;;;;5072064;28;20269;-75
2022/11/12 04:08:56;;;;;;;0.30;0.30;;;7.60;99.90;;;;;;5071756;28;20353;-75
2022/11/12 04:11:22;;;;;;;0.50;0.50;;;7.80;99.90;;;;;;5072333;28;20159;-74
2022/11/12 04:13:48;;;;;;;0.85;0.85;;;;;;;;;;5072550;28;20379;-75
2022/11/12 04:21:53;;;;;;;0.68;0.68;;;7.80;99.90;;;;;;5053646;28;20091;-73
2022/11/12 04:27:25;;;;;;;1.02;1.02;;;7.80;99.90;;;;;;5051898;28;20044;-74
2022/11/12 04:32:38;;;;;;;0.90;0.90;;;8.10;99.90;;;;;;5070742;28;20411;-72
2022/11/12 04:35:06;;;;;;;0.32;0.32;;;8.00;99.90;;;;;;5071282;28;20025;-76
2022/11/12 04:37:45;;;;;;;2.05;1.60;;;8.00;99.90;;;;;;5053919;28;20091;-73
2022/11/12 04:45:41;;;;;;;1.05;1.05;;;7.90;99.90;;;;;;5060890;28;20044;-73
2022/11/12 04:48:07;;;;;;;2.65;1.65;;;7.80;99.90;;;;;;5070830;28;20084;-73
2022/11/12 04:50:33;;;;;;;1.27;1.27;;;7.40;99.90;;;;;;5070781;28;20060;-74
2022/11/12 04:52:59;;;;;;;0.52;0.52;;;;;;;;;;5051784;28;20523;-73
2022/11/12 04:55:25;;;;;;;0.97;0.97;;;8.50;99.90;;;;;;5049265;28;20061;-74
2022/11/12 04:57:51;;;;;;;4.50;2.30;;;8.10;99.90;;;;;;5050907;28;20370;-74
2022/11/12 05:00:17;;;;;;;1.23;1.13;;;8.10;99.90;;;;;;5056274;28;20017;-75
2022/11/12 05:02:43;;;;;;;0.43;0.43;;;;;;;;;;5070747;28;20044;-74
2022/11/12 05:05:09;;;;;;;0.67;0.67;;;;;;;;;;5070936;28;20115;-76
2022/11/12 05:07:34;;;;;;;1.10;1.10;;;8.00;99.90;;;;;;5057480;28;20025;-74
2022/11/12 05:10:00;;;;;;;1.00;1.00;;;;;;;;;;5050862;28;20044;-75
2022/11/12 05:12:26;;;;;;;2.23;1.80;;;8.00;99.90;;;;;;5050907;28;20025;-75
2022/11/12 05:14:52;;;;;;;0.40;0.40;;;;;;;;;;5051221;28;20273;-74
2022/11/12 05:17:18;;;;;;;0.50;0.50;;;;;;;;;;5070415;28;20036;-76
2022/11/12 05:19:44;;;;;;;5.77;1.80;;;;;;;;;;5070863;28;20265;-75
2022/11/12 05:22:10;;;;;;;1.03;1.03;;;7.90;99.90;;;;;;5063166;28;20044;-76
2022/11/12 05:24:40;;;;;;;1.35;1.27;;;7.70;99.90;;;;;;5050677;28;20706;-75
2022/11/12 05:27:18;;;;;;;0.70;0.70;;;8.00;99.90;;;;;;5049225;28;20029;-74
2022/11/12 05:29:43;;;;;;;;;;;7.90;99.90;;;;;;5049611;28;20056;-72
2022/11/12 05:32:11;;;;;;;1.02;1.02;;;7.60;99.90;;;;;;5066447;28;20003;-72
2022/11/12 05:34:37;;;;;;;0.80;0.80;;;8.20;99.90;;;;;;5068768;28;20040;-73
2022/11/12 05:37:04;;;;;;;0.63;0.63;;;7.90;99.90;;;;;;5065343;28;20384;-74
2022/11/12 05:39:30;;;;;;;1.25;1.17;;;7.90;99.90;;;;;;5048881;28;20366;-73
2022/11/12 05:41:56;;;;;;;0.70;0.70;;;7.80;99.90;;;;;;5050669;28;20116;-73
2022/11/12 05:44:21;;;;;;;0.70;0.70;;;7.60;99.90;;;;;;5050386;28;20388;-74
2022/11/12 05:46:47;;;;;;;2.53;1.77;;;7.80;99.90;;;;;;5060047;28;20071;-72
2022/11/12 05:49:13;;;;;;;1.40;1.38;;;;;;;;;;5070051;28;20180;-72
2022/11/12 05:51:40;;;;;;;2.23;1.70;;;;;;;;;;5070589;28;20119;-73
2022/11/12 05:54:06;;;;;;;3.72;2.08;;;;;;;;;;5052385;28;20218;-73
2022/11/12 05:56:32;;;;;;;0.90;0.90;;;8.00;99.90;;;;;;5054574;28;20029;-74
2022/11/12 05:58:58;;;;;;;1.90;1.75;;;8.20;99.90;;;;;;5054021;28;20036;-72
2022/11/12 06:01:23;;;;;;;0.60;0.60;;;7.90;99.90;;;;;;5058412;28;20412;-74
2022/11/12 06:03:49;;;;;;;0.83;0.83;;;8.10;99.90;;;;;;5072465;28;20111;-74
2022/11/12 06:06:14;;;;;;;2.27;2.03;;;8.30;99.90;;;;;;5072639;28;20456;-72
2022/11/12 06:08:40;;;;;;;1.03;1.00;;;8.30;99.90;;;;;;5061121;28;20036;-73
2022/11/12 06:11:05;;;;;;;2.03;1.57;;;8.10;99.90;;;;;;5054189;28;20069;-74
2022/11/12 06:13:31;;;;;;;0.67;0.67;;;8.40;99.90;;;;;;5052446;28;20028;-73
2022/11/12 06:15:57;;;;;;;1.80;1.43;;;;;;;;;;5054212;28;20064;-74
2022/11/12 06:18:23;;;;;;;1.58;1.48;;;8.20;99.90;;;;;;5073805;28;20033;-73
2022/11/12 06:21:18;;;;;;;0.40;0.40;;;8.10;99.90;;;;;;5073953;28;20115;-74
2022/11/12 06:23:35;;;;;;;1.00;1.00;;;8.10;99.90;;;;;;5063225;28;20090;-72
2022/11/12 06:26:01;;;;;;;0.98;0.98;;;;;;;;;;5053801;28;20496;-74
2022/11/12 06:28:27;;;;;;;0.90;0.90;;;8.50;99.90;;;;;;5052117;28;20025;-74
2022/11/12 06:30:54;;;;;;;2.03;0.95;;;;;;;;;;5053805;28;20056;-74
2022/11/12 06:33:20;;;;;;;0.82;0.82;;;8.50;99.90;;;;;;5054545;28;20067;-74
2022/11/12 06:35:45;;;;;;;3.43;3.13;;;8.50;99.90;;;;;;5053628;28;20084;-73
2022/11/12 06:38:11;;;;;;;0.73;0.73;;;8.80;99.90;;;;;;5057735;28;20048;-73
2022/11/12 06:40:37;;;;;;;0.53;0.53;;;8.40;99.90;;;;;;5073692;28;20037;-75
2022/11/12 06:43:02;;;;;;;2.97;2.77;;;8.20;99.90;;;;;;5072153;28;20024;-74
2022/11/12 06:45:28;;;;;;;5.80;1.33;;;8.40;99.90;;;;;;5073781;28;20039;-74
2022/11/12 06:47:58;;;;;;;1.53;1.43;;;8.60;99.90;;;;;;5059161;28;20032;-74
2022/11/12 06:50:23;;;;;;;1.98;1.88;;;8.40;99.90;;;;;;5053605;28;20044;-74
2022/11/12 06:52:49;;;;;;;1.60;1.50;;;8.90;99.90;;;;;;5053371;28;20396;-74
2022/11/12 06:55:14;;;;;;;2.20;2.07;;;8.60;99.90;;;;;;5071844;28;20055;-75
2022/11/12 06:57:40;;;;;;;2.10;1.90;;;8.80;99.90;;;;;;5071756;28;20365;-74
2022/11/12 07:00:07;;;;;;;1.13;1.10;;;9.50;99.90;;;;;;5073101;28;20133;-74
2022/11/12 07:02:33;;;;;;;2.63;2.42;;;9.90;99.90;;;;;;5072532;28;20078;-73
2022/11/12 07:04:59;;;;;;;2.17;1.90;;;;;;;;;;5070954;28;20384;-74
2022/11/12 07:07:25;;;;;;;3.80;2.23;;;10.30;99.90;;;;;;5072235;28;20028;-74
2022/11/12 07:09:50;;;;;;;0.97;0.97;;;10.90;99.90;;;;;;5072527;28;20257;-74
2022/11/12 07:12:16;;;;;;;1.80;1.70;;;9.80;99.90;;;;;;5073046;28;20086;-75
2022/11/12 07:14:42;;;;;;;3.40;1.07;;;;;;;;;;5072857;28;20391;-74
2022/11/12 07:17:10;;;;;;;1.30;1.27;;;10.60;99.90;;;;;;5070086;28;20033;-75
2022/11/12 07:19:36;;;;;;;1.20;1.17;;;;;;;;;;5051012;28;20357;-74
2022/11/12 07:22:02;;;;;;;0.90;0.90;;;;;;;;;;5052691;28;20479;-73
2022/11/12 07:24:28;;;;;;;1.43;1.33;;;;;;;;;;5052548;28;20519;-75
2022/11/12 07:26:54;;;;;;;10.03;2.03;;;;;;;;;;5052762;28;20035;-74
2022/11/12 07:29:20;;;;;;;0.80;0.80;;;;;;;;;;5052426;28;20266;-75
2022/11/12 07:31:46;;;;;;;1.73;1.63;;;;;;;;;;5052667;28;20276;-76
2022/11/12 07:34:12;;;;;;;2.88;1.42;;;;;;;;;;5069528;28;20112;-74
2022/11/12 07:36:38;;;;;;;1.73;1.63;;;;;;;;;;5072102;28;20108;-75
2022/11/12 07:39:03;;;;;;;0.87;0.87;;;;;;;;;;5067726;28;20080;-73
2022/11/12 07:41:29;;;;;;;0.83;0.83;;;10.30;99.90;;;;;;5052629;28;20080;-72
2022/11/12 07:43:55;;;;;;;0.93;0.93;;;10.20;99.90;;;;;;5052417;28;20465;-76
2022/11/12 07:46:25;;;;;;;1.70;1.60;;;10.70;99.90;;;;;;5051988;28;20464;-73
2022/11/12 07:48:52;;;;;;;1.67;1.58;;;10.60;99.90;;;;;;5064609;28;20047;-73
2022/11/12 07:51:19;;;;;;;;;;;10.60;99.90;;;;;;5072266;28;20028;-72
2022/11/12 07:53:46;;;;;;;1.65;1.55;;;10.90;99.90;;;;;;5070701;28;20340;-75
2022/11/12 07:56:16;;;;;;;1.58;1.48;;;11.00;99.90;;;;;;5067300;28;20147;-75
2022/11/12 07:58:43;;;;;;;2.88;2.67;;;11.20;99.90;;;;;;5056853;28;20024;-73
2022/11/12 08:01:09;;;;;;;1.90;1.20;;;11.60;99.90;;;;;;5070592;28;20376;-73
2022/11/12 08:03:35;;;;;;;;;;;11.80;99.90;;;;;;5070754;28;20025;-76
2022/11/12 08:06:01;;;;;;;3.17;1.75;;;;;;;;;;5071584;28;19923;-73
2022/11/12 08:08:28;;;;;;;3.42;2.22;;;;;;;;;;5067438;28;20419;-73
2022/11/12 08:10:57;;;;;;;3.50;3.15;;;12.80;99.90;;;;;;5063885;28;20468;-76
2022/11/12 08:13:23;;;;;;;2.83;2.35;;;;;;;;;;5071730;28;20024;-74
2022/11/12 08:15:49;;;;;;;0.93;0.93;;;12.70;99.90;;;;;;5070325;28;20040;-73
2022/11/12 08:18:15;;;;;;;5.57;3.23;;;;;;;;;;5058456;28;20062;-73
2022/11/12 08:20:41;;;;;;;2.67;2.47;;;;;;;;;;5051799;28;20120;-73
2022/11/12 08:23:08;;;;;;;1.60;1.50;;;13.10;99.90;;;;;;5051514;28;20536;-74
2022/11/12 08:25:33;;;;;;;1.02;0.73;;;13.10;99.90;;;;;;5070478;28;20040;-73
2022/11/12 08:27:59;;;;;;;2.37;1.70;;;13.20;99.90;;;;;;5069889;28;20468;-73
2022/11/12 08:30:26;;;;;;;1.63;1.53;;;13.20;99.90;;;;;;5071404;28;20071;-74
2022/11/12 08:32:57;;;;;;;3.38;3.08;;;13.50;99.90;;;;;;5063944;28;20013;-73
2022/11/12 08:35:25;;;;;;;2.33;2.13;;;13.10;99.90;;;;;;5051507;28;20024;-72
2022/11/12 08:37:51;;;;;;;1.85;1.75;;;;;;;;;;5051008;28;20108;-73
2022/11/12 08:40:16;;;;;;;3.10;2.80;;;13.20;99.90;;;;;;5052248;28;20116;-73
2022/11/12 08:42:42;;;;;;;2.30;2.10;;;;;;;;;;5070105;28;20276;-71
2022/11/12 08:45:09;;;;;;;1.13;1.13;;;;;;;;;;5069847;28;20535;-72
2022/11/12 08:47:34;;;;;;;4.70;3.78;;;13.40;99.90;;;;;;5068137;28;20033;-70
2022/11/12 08:50:00;;;;;;;1.17;1.13;;;;;;;;;;5050803;28;20048;-70
2022/11/12 08:52:26;;;;;;;1.67;1.58;;;;;;;;;;5049302;28;20017;-70
2022/11/12 08:54:52;;;;;;;1.13;0.97;;;;;;;;;;5059699;28;20467;-70
2022/11/12 08:57:18;;;;;;;2.97;2.00;;;12.90;99.90;;;;;;5069433;28;20028;-71
2022/11/12 08:59:43;;;;;;;0.70;0.70;;;12.70;99.90;;;;;;5070552;28;20269;-71
2022/11/12 09:02:13;;;;;;;1.50;1.40;;;12.60;99.90;;;;;;5069182;28;20086;-71
2022/11/12 09:04:39;;;;;;;1.58;1.48;;;;;;;;;;5051602;28;20041;-71
2022/11/12 09:07:07;;;;;;;1.15;1.05;;;;;;;;;;5049294;28;20098;-70
2022/11/12 09:09:33;;;;;;;0.67;0.67;;;;;;;;;;5054448;28;20451;-75
2022/11/12 09:11:59;;;;;;;1.33;1.23;;;12.20;99.90;;;;;;5070938;28;20265;-72
2022/11/12 09:14:25;;;;;;;0.70;0.70;;;12.10;99.90;;;;;;5069171;28;20500;-73
2022/11/12 09:16:53;;;;;;;1.57;1.47;;;11.90;99.90;;;;;;5052720;28;20036;-73
2022/11/12 09:19:19;;;;;;;2.78;2.15;;;11.60;99.90;;;;;;5057161;28;20296;-72
2022/11/12 09:21:45;;;;;;;11.07;2.90;;;;;;;;;;5049301;28;20033;-75
2022/11/12 09:24:11;;;;;;;2.43;2.23;;;;;;;;;;5048735;28;20117;-72
2022/11/12 09:26:36;;;;;;;2.40;2.07;;;;;;;;;;5068750;28;20652;-73
2022/11/12 09:29:02;;;;;;;1.70;1.60;;;;;;;;;;5069339;28;20025;-73
2022/11/12 09:31:28;;;;;;;1.60;1.50;;;;;;;;;;5068923;28;20033;-72
2022/11/12 09:33:54;;;;;;;9.93;1.67;;;12.20;99.90;;;;;;5048600;28;20049;-72
2022/11/12 09:36:20;;;;;;;1.53;1.43;;;12.30;99.90;;;;;;5050478;28;20286;-73
2022/11/12 09:38:45;;;;;;;3.53;2.90;;;12.20;99.90;;;;;;5050250;28;20033;-72
2022/11/12 09:41:25;;;;;;;2.20;2.10;;;12.00;99.90;;;;;;5064376;28;20037;-73
2022/11/12 09:44:00;;;;;;;0.60;0.60;;;11.70;99.90;;;;;;5059427;28;20044;-73
2022/11/12 09:46:52;;;;;;;1.65;1.55;;;11.80;99.90;;;;;;5050566;28;20033;-74
2022/11/12 09:49:36;;;;;;;1.73;1.63;;;12.30;99.90;;;;;;5050261;28;20540;-73
2022/11/12 09:52:13;;;;;;;7.97;2.30;;;12.80;99.90;;;;;;5067740;28;20025;-72
2022/11/12 09:54:41;;;;;;;1.75;1.50;;;12.60;99.90;;;;;;5070244;28;20033;-72
2022/11/12 09:57:11;;;;;;;1.73;1.60;;;12.30;99.90;;;;;;5065302;28;20500;-73
2022/11/12 09:59:40;;;;;;;0.80;0.80;;;12.40;99.90;;;;;;5050105;28;20112;-72
2022/11/12 10:02:34;;;;;;;0.65;0.65;;;12.60;99.90;;;;;;5064239;28;20060;-72
2022/11/12 10:05:03;;;;;;;0.63;0.63;;;12.40;99.90;;;;;;5069774;28;20467;-72
2022/11/12 10:07:29;;;;;;;0.70;0.70;;;;;;;;;;5070214;28;20051;-72
2022/11/12 10:10:14;;;;;;;1.10;1.10;;;13.20;99.90;;;;;;5062768;28;20453;-72
2022/11/12 10:13:10;;;;;;;0.93;0.93;;;12.50;99.90;;;;;;5048345;28;20301;-73
2022/11/12 10:19:00;;;;;;;1.75;1.65;;;12.90;99.90;;;;;;5049753;28;20036;-74
2022/11/12 10:22:03;;;;;;;2.15;2.05;;;13.00;99.90;;;;;;5064156;28;20055;-72
2022/11/12 10:24:34;;;;;;;2.90;2.65;;;12.90;99.90;;;;;;5068298;28;20036;-73
2022/11/12 10:27:01;;;;;;;2.38;2.20;;;13.50;99.90;;;;;;5049976;28;20224;-72
2022/11/12 10:29:27;;;;;;;1.08;1.08;;;;;;;;;;5048386;28;20086;-72
2022/11/12 10:31:53;;;;;;;1.23;1.17;;;;;;;;;;5066093;28;20028;-73
2022/11/12 10:34:21;;;;;;;1.43;1.33;;;12.70;99.90;;;;;;5069955;28;20740;-71
2022/11/12 10:36:55;;;;;;;1.27;1.20;;;12.60;99.90;;;;;;5070070;28;20123;-72
2022/11/12 10:39:39;;;;;;;3.70;3.03;;;12.60;99.90;;;;;;5063946;28;20065;-71
2022/11/12 10:42:09;;;;;;;1.88;1.60;;;12.50;99.90;;;;;;5053217;28;20033;-73
2022/11/12 10:44:35;;;;;;;2.75;1.15;;;;;;;;;;5051694;28;20021;-70
2022/11/12 10:47:30;;;;;;;2.22;2.10;;;12.90;99.90;;;;;;5053027;28;20033;-70
2022/11/12 10:50:08;;;;;;;1.70;1.60;;;13.10;99.90;;;;;;5052598;28;20131;-69
2022/11/12 10:52:34;;;;;;;0.88;0.88;;;13.20;99.90;;;;;;5050812;28;20026;-69
2022/11/12 10:55:19;;;;;;;2.88;2.05;;;13.40;99.90;;;;;;5060522;28;20460;-69
2022/11/12 10:57:45;;;;;;;1.13;1.05;;;;;;;;;;5070662;28;20036;-71
2022/11/12 11:00:17;;;;;;;0.70;0.70;;;13.50;99.90;;;;;;5069052;28;20446;-68
2022/11/12 11:16:29;;;;;;;1.80;1.70;;;14.20;99.90;;;;;;5088187;28;20390;-72
2022/11/12 11:19:03;;;;;;;0.70;0.70;;;13.60;99.90;;;;;;5087848;28;20040;-72
2022/11/12 11:21:48;;;;;;;0.43;0.43;;;14.00;99.90;;;;;;5086281;28;20036;-73
2022/11/12 11:24:45;;;;;;;1.75;1.65;;;14.50;99.90;;;;;;5086247;28;20059;-73
2022/11/12 11:27:31;;;;;;;3.50;1.52;;;14.50;99.90;;;;;;5082608;28;20032;-73
2022/11/12 11:29:57;;;;;;;2.08;1.88;;;;;;;;;;5087618;28;20040;-72
2022/11/12 11:32:33;;;;;;;1.40;1.30;;;;;;;;;;5086372;28;20024;-72
2022/11/12 11:34:58;;;;;;;0.98;0.98;;;;;;;;;;5086811;28;20372;-75
2022/11/12 11:37:27;;;;;;;1.77;1.60;;;14.20;99.90;;;;;;5087206;28;20111;-74
2022/11/12 11:40:07;;;;;;;1.45;1.35;;;13.90;99.90;;;;;;5086914;28;20296;-73
2022/11/12 11:43:10;;;;;;;2.40;2.20;;;13.70;99.90;;;;;;5087204;28;20479;-74
2022/11/12 11:46:13;;;;;;;1.80;1.40;;;13.30;99.90;;;;;;5087642;28;20109;-74
2022/11/12 11:48:50;;;;;;;1.88;1.75;;;13.90;99.90;;;;;;5086875;28;20427;-73
2022/11/12 11:51:34;;;;;;;1.88;1.77;;;12.80;99.90;;;;;;5087218;28;20028;-74
2022/11/12 11:54:05;;;;;;;0.40;0.40;;;12.90;99.90;;;;;;5086957;28;20077;-75
2022/11/12 11:56:35;;;;;;;1.48;1.15;;;12.90;99.90;;;;;;5086866;28;20031;-75
2022/11/12 11:59:31;;;;;;;0.40;0.40;;;12.90;99.90;;;;;;5085916;28;20401;-75
2022/11/12 12:02:29;;;;;;;17.80;1.38;;;12.90;99.90;;;;;;5087132;28;20097;-73
2022/11/12 12:05:24;;;;;;;2.05;1.85;;;12.90;99.90;;;;;;5086619;28;20040;-74
2022/11/12 12:08:02;;;;;;;1.20;1.15;;;12.60;99.90;;;;;;5086815;28;20040;-74
2022/11/12 12:10:28;;;;;;;1.60;1.50;;;;;;;;;;5080470;28;20511;-73
2022/11/12 12:13:01;;;;;;;0.53;0.53;;;12.90;99.90;;;;;;5082728;28;20107;-72
2022/11/12 12:15:59;;;;;;;1.05;1.02;;;12.90;99.90;;;;;;5093927;28;20541;-74
2022/11/12 12:18:49;;;;;;;0.98;0.98;;;12.90;99.90;;;;;;5067758;28;20127;-74
2022/11/12 12:21:17;;;;;;;0.80;0.80;;;12.80;99.90;;;;;;5071683;28;20059;-73
2022/11/12 12:23:43;;;;;;;1.20;1.10;;;;;;;;;;5087722;28;20132;-74
2022/11/12 12:26:16;;;;;;;0.90;0.90;;;12.90;99.90;;;;;;5091434;28;20470;-73
2022/11/12 12:29:05;;;;;;;2.05;1.50;;;12.70;99.90;;;;;;5091844;28;20034;-73
2022/11/12 12:31:36;;;;;;;0.60;0.60;;;12.70;99.90;;;;;;5084483;28;20494;-73
2022/11/12 12:34:23;;;;;;;1.15;1.08;;;12.70;99.90;;;;;;5071577;28;20032;-74
2022/11/12 12:36:55;;;;;;;1.77;1.67;;;12.70;99.90;;;;;;5072630;28;20044;-73
2022/11/12 12:39:51;;;;;;;1.15;1.15;;;12.70;99.90;;;;;;5073047;28;20032;-73
2022/11/12 12:42:26;;;;;;;2.03;1.83;;;12.80;99.90;;;;;;5058226;28;20033;-74
2022/11/12 12:45:03;;;;;;;1.60;1.40;;;;;;;;;;5071280;28;20456;-74
2022/11/12 12:47:35;;;;;;;0.40;0.40;;;12.70;99.90;;;;;;5072643;28;20028;-74
2022/11/12 12:50:05;;;;;;;0.75;0.75;;;;;;;;;;5085613;28;20044;-73
2022/11/12 12:52:51;;;;;;;0.47;0.47;;;;;;;;;;5092916;28;20032;-74
2022/11/12 12:55:35;;;;;;;1.48;1.35;;;;;;;;;;5087002;28;20146;-73
2022/11/12 12:58:01;;;;;;;2.10;1.83;;;;;;;;;;5072377;28;20056;-74
2022/11/12 13:00:30;;;;;;;1.83;1.73;;;;;;;;;;5072771;28;20060;-75
2022/11/12 13:02:56;;;;;;;1.23;1.13;;;;;;;;;;5070975;28;20433;-73
2022/11/12 13:05:24;;;;;;;1.67;1.58;;;;;;;;;;5087812;28;20502;-73
2022/11/12 13:07:50;;;;;;;0.73;0.73;;;12.50;99.90;;;;;;5092360;28;20335;-76
2022/11/12 13:10:35;;;;;;;0.70;0.70;;;;;;;;;;5090825;28;20032;-73
2022/11/12 13:13:02;;;;;;;0.98;0.98;;;;;;;;;;5090562;28;20097;-73
2022/11/12 13:15:58;;;;;;;0.40;0.40;;;12.40;99.90;;;;;;5092045;28;20052;-74
2022/11/12 13:18:36;;;;;;;0.68;0.68;;;;;;;;;;5070442;28;20024;-74
2022/11/12 13:21:12;;;;;;;0.60;0.60;;;;;;;;;;5071562;28;20037;-74
2022/11/12 13:26:57;;;;;;;0.40;0.40;;;12.20;99.90;;;;;;5081740;28;20406;-74
2022/11/12 13:29:23;;;;;;;1.40;1.30;;;;;;;;;;5074490;28;20150;-74
2022/11/12 13:32:09;;;;;;;0.82;0.82;;;;;;;;;;5090509;28;20024;-74
2022/11/12 13:34:35;;;;;;;1.27;1.23;;;;;;;;;;5090988;28;20032;-74
2022/11/12 13:37:03;;;;;;;0.60;0.60;;;;;;;;;;5091790;28;20432;-75
2022/11/12 13:39:37;;;;;;;0.80;0.80;;;12.10;99.90;;;;;;5092158;28;20101;-75
2022/11/12 13:44:59;;;;;;;1.58;1.45;;;12.10;99.90;;;;;;5051425;28;20044;-74
2022/11/12 13:47:28;;;;;;;1.05;1.05;;;;;;;;;;5051683;28;20499;-74
2022/11/12 13:49:55;;;;;;;2.85;1.73;;;;;;;;;;5057471;28;20188;-74
2022/11/12 13:52:21;;;;;;;2.17;1.30;;;;;;;;;;5071507;28;20105;-73
2022/11/12 13:55:19;;;;;;;1.85;1.75;;;12.00;99.90;;;;;;5071484;28;20113;-73
2022/11/12 13:58:04;;;;;;;1.17;1.15;;;;;;;;;;5053901;28;20075;-73
2022/11/12 14:00:31;;;;;;;2.38;2.20;;;12.10;99.90;;;;;;5050198;28;20079;-74
2022/11/12 14:03:01;;;;;;;0.38;0.38;;;12.20;99.90;;;;;;5051103;28;20040;-74
2022/11/12 14:05:30;;;;;;;1.25;1.15;;;12.20;99.90;;;;;;5059151;28;20067;-73
2022/11/12 14:08:14;;;;;;;0.80;0.80;;;;;;;;;;5070935;28;20056;-74
2022/11/12 14:10:56;;;;;;;0.60;0.60;;;11.90;99.90;;;;;;5071462;28;20044;-74
2022/11/12 14:13:59;;;;;;;3.05;2.80;;;11.80;99.90;;;;;;5050061;28;20404;-73
2022/11/12 14:16:53;;;;;;;1.10;1.00;;;11.70;99.90;;;;;;5051174;28;20045;-74
2022/11/12 14:19:36;;;;;;;2.15;2.05;;;11.70;99.90;;;;;;5051181;28;20031;-73
2022/11/12 14:22:08;;;;;;;0.88;0.88;;;;;;;;;;5069866;28;20021;-73
2022/11/12 14:24:34;;;;;;;2.38;1.23;;;;;;;;;;5069564;28;20051;-73
2022/11/12 14:27:00;;;;;;;1.80;1.70;;;;;;;;;;5068406;28;20032;-73